sensor_id;sensor_type;location;lat;lon;timestamp;P1;durP1;ratioP1;P2;durP2;ratioP2
13891;SDS011;7016;48.172;8.058;2023-03-01T00:01:00;24.33;;;14.18;;
13891;SDS011;7016;48.172;8.058;2023-03-01T00:03:27;25.42;;;14.52;;
13891;SDS011;7016;48.172;8.058;2023-03-01T00:05:53;26.52;;;14.38;;
13891;SDS011;7016;48.172;8.058;2023-03-01T00:08:19;28.63;;;14.85;;
13891;SDS011;7016;48.172;8.058;2023-03-01T00:10:44;22.60;;;14.85;;
13891;SDS011;7016;48.172;8.058;2023-03-01T00:13:10;20.98;;;13.52;;
13891;SDS011;7016;48.172;8.058;2023-03-01T00:15:39;24.08;;;14.23;;
13891;SDS011;7016;48.172;8.058;2023-03-01T00:18:06;30.08;;;15.00;;
13891;SDS011;7016;48.172;8.058;2023-03-01T00:20:33;27.48;;;15.32;;
13891;SDS011;7016;48.172;8.058;2023-03-01T00:22:59;23.40;;;13.60;;
13891;SDS011;7016;48.172;8.058;2023-03-01T00:25:25;24.83;;;14.23;;
13891;SDS011;7016;48.172;8.058;2023-03-01T00:27:51;24.88;;;14.95;;
13891;SDS011;7016;48.172;8.058;2023-03-01T00:30:16;24.65;;;14.25;;
13891;SDS011;7016;48.172;8.058;2023-03-01T00:32:42;26.48;;;15.20;;
13891;SDS011;7016;48.172;8.058;2023-03-01T00:35:08;24.48;;;14.80;;
13891;SDS011;7016;48.172;8.058;2023-03-01T00:37:34;24.02;;;14.00;;
13891;SDS011;7016;48.172;8.058;2023-03-01T00:39:59;25.25;;;14.57;;
13891;SDS011;7016;48.172;8.058;2023-03-01T00:42:25;27.50;;;14.80;;
13891;SDS011;7016;48.172;8.058;2023-03-01T00:44:51;25.92;;;14.68;;
13891;SDS011;7016;48.172;8.058;2023-03-01T00:47:16;25.55;;;14.80;;
13891;SDS011;7016;48.172;8.058;2023-03-01T00:49:42;25.38;;;14.45;;
13891;SDS011;7016;48.172;8.058;2023-03-01T00:52:08;26.38;;;14.38;;
13891;SDS011;7016;48.172;8.058;2023-03-01T00:54:33;24.67;;;14.40;;
13891;SDS011;7016;48.172;8.058;2023-03-01T00:56:59;25.92;;;14.95;;
13891;SDS011;7016;48.172;8.058;2023-03-01T00:59:25;25.08;;;15.07;;
13891;SDS011;7016;48.172;8.058;2023-03-01T01:01:50;28.63;;;15.30;;
13891;SDS011;7016;48.172;8.058;2023-03-01T01:04:16;25.73;;;15.77;;
13891;SDS011;7016;48.172;8.058;2023-03-01T01:06:45;26.27;;;15.88;;
13891;SDS011;7016;48.172;8.058;2023-03-01T01:09:12;24.60;;;14.60;;
13891;SDS011;7016;48.172;8.058;2023-03-01T01:11:46;27.30;;;15.45;;
13891;SDS011;7016;48.172;8.058;2023-03-01T01:14:13;26.42;;;15.23;;
13891;SDS011;7016;48.172;8.058;2023-03-01T01:16:40;26.45;;;15.25;;
13891;SDS011;7016;48.172;8.058;2023-03-01T01:19:06;29.20;;;15.68;;
13891;SDS011;7016;48.172;8.058;2023-03-01T01:21:32;26.02;;;15.82;;
13891;SDS011;7016;48.172;8.058;2023-03-01T01:23:58;29.00;;;15.98;;
13891;SDS011;7016;48.172;8.058;2023-03-01T01:26:25;26.23;;;13.70;;
13891;SDS011;7016;48.172;8.058;2023-03-01T01:28:55;26.90;;;15.70;;
13891;SDS011;7016;48.172;8.058;2023-03-01T01:31:22;28.17;;;15.95;;
13891;SDS011;7016;48.172;8.058;2023-03-01T01:33:49;31.30;;;17.08;;
13891;SDS011;7016;48.172;8.058;2023-03-01T01:36:15;31.67;;;16.15;;
13891;SDS011;7016;48.172;8.058;2023-03-01T01:38:41;30.35;;;15.75;;
13891;SDS011;7016;48.172;8.058;2023-03-01T01:41:10;26.63;;;15.95;;
13891;SDS011;7016;48.172;8.058;2023-03-01T01:43:38;24.95;;;15.13;;
13891;SDS011;7016;48.172;8.058;2023-03-01T01:48:54;32.05;;;17.05;;
13891;SDS011;7016;48.172;8.058;2023-03-01T01:51:28;31.45;;;17.20;;
13891;SDS011;7016;48.172;8.058;2023-03-01T01:54:04;28.15;;;17.55;;
13891;SDS011;7016;48.172;8.058;2023-03-01T01:56:37;37.85;;;19.98;;
13891;SDS011;7016;48.172;8.058;2023-03-01T01:59:08;35.85;;;18.80;;
13891;SDS011;7016;48.172;8.058;2023-03-01T02:01:34;32.00;;;18.20;;
13891;SDS011;7016;48.172;8.058;2023-03-01T02:04:00;34.08;;;17.42;;
13891;SDS011;7016;48.172;8.058;2023-03-01T02:06:27;29.42;;;16.83;;
13891;SDS011;7016;48.172;8.058;2023-03-01T02:08:59;28.00;;;15.93;;
13891;SDS011;7016;48.172;8.058;2023-03-01T02:11:29;25.77;;;15.27;;
13891;SDS011;7016;48.172;8.058;2023-03-01T02:13:56;26.63;;;16.45;;
13891;SDS011;7016;48.172;8.058;2023-03-01T02:16:22;29.35;;;16.02;;
13891;SDS011;7016;48.172;8.058;2023-03-01T02:18:48;30.88;;;16.67;;
13891;SDS011;7016;48.172;8.058;2023-03-01T02:24:15;29.38;;;16.27;;
13891;SDS011;7016;48.172;8.058;2023-03-01T02:26:45;31.02;;;16.40;;
13891;SDS011;7016;48.172;8.058;2023-03-01T02:29:15;27.40;;;16.10;;
13891;SDS011;7016;48.172;8.058;2023-03-01T02:31:40;30.45;;;17.58;;
13891;SDS011;7016;48.172;8.058;2023-03-01T02:34:07;31.23;;;18.02;;
13891;SDS011;7016;48.172;8.058;2023-03-01T02:37:18;29.27;;;16.55;;
13891;SDS011;7016;48.172;8.058;2023-03-01T02:39:40;30.25;;;17.27;;
13891;SDS011;7016;48.172;8.058;2023-03-01T02:42:13;36.40;;;17.90;;
13891;SDS011;7016;48.172;8.058;2023-03-01T02:44:41;29.58;;;16.75;;
13891;SDS011;7016;48.172;8.058;2023-03-01T02:47:07;28.48;;;16.77;;
13891;SDS011;7016;48.172;8.058;2023-03-01T02:49:34;30.50;;;18.08;;
13891;SDS011;7016;48.172;8.058;2023-03-01T02:54:40;30.27;;;16.67;;
13891;SDS011;7016;48.172;8.058;2023-03-01T02:57:15;31.15;;;17.58;;
13891;SDS011;7016;48.172;8.058;2023-03-01T02:59:42;33.67;;;18.33;;
13891;SDS011;7016;48.172;8.058;2023-03-01T03:02:21;32.17;;;18.15;;
13891;SDS011;7016;48.172;8.058;2023-03-01T03:07:55;27.33;;;17.13;;
13891;SDS011;7016;48.172;8.058;2023-03-01T03:10:24;30.35;;;17.40;;
13891;SDS011;7016;48.172;8.058;2023-03-01T03:12:55;29.27;;;17.67;;
13891;SDS011;7016;48.172;8.058;2023-03-01T03:15:23;30.50;;;17.45;;
13891;SDS011;7016;48.172;8.058;2023-03-01T03:17:50;30.98;;;18.15;;
13891;SDS011;7016;48.172;8.058;2023-03-01T03:20:18;31.77;;;18.17;;
13891;SDS011;7016;48.172;8.058;2023-03-01T03:22:47;30.45;;;17.85;;
13891;SDS011;7016;48.172;8.058;2023-03-01T03:25:14;30.50;;;17.52;;
13891;SDS011;7016;48.172;8.058;2023-03-01T03:27:42;34.55;;;17.85;;
13891;SDS011;7016;48.172;8.058;2023-03-01T03:30:11;31.80;;;17.58;;
13891;SDS011;7016;48.172;8.058;2023-03-01T03:32:39;27.60;;;16.80;;
13891;SDS011;7016;48.172;8.058;2023-03-01T03:35:06;47.30;;;18.55;;
13891;SDS011;7016;48.172;8.058;2023-03-01T03:37:37;32.10;;;17.67;;
13891;SDS011;7016;48.172;8.058;2023-03-01T03:40:25;30.13;;;18.02;;
13891;SDS011;7016;48.172;8.058;2023-03-01T03:42:51;28.08;;;17.48;;
13891;SDS011;7016;48.172;8.058;2023-03-01T03:45:18;33.72;;;17.98;;
13891;SDS011;7016;48.172;8.058;2023-03-01T03:47:44;30.17;;;16.88;;
13891;SDS011;7016;48.172;8.058;2023-03-01T03:50:14;32.17;;;16.90;;
13891;SDS011;7016;48.172;8.058;2023-03-01T03:52:41;32.58;;;18.10;;
13891;SDS011;7016;48.172;8.058;2023-03-01T03:55:07;29.88;;;17.25;;
13891;SDS011;7016;48.172;8.058;2023-03-01T03:57:40;33.70;;;18.77;;
13891;SDS011;7016;48.172;8.058;2023-03-01T04:00:07;33.38;;;17.27;;
13891;SDS011;7016;48.172;8.058;2023-03-01T04:02:43;30.50;;;16.83;;
13891;SDS011;7016;48.172;8.058;2023-03-01T04:05:10;29.30;;;17.20;;
13891;SDS011;7016;48.172;8.058;2023-03-01T04:07:37;32.58;;;18.15;;
13891;SDS011;7016;48.172;8.058;2023-03-01T04:10:07;33.22;;;17.10;;
13891;SDS011;7016;48.172;8.058;2023-03-01T04:12:37;27.92;;;17.17;;
13891;SDS011;7016;48.172;8.058;2023-03-01T04:15:04;31.38;;;18.17;;
13891;SDS011;7016;48.172;8.058;2023-03-01T04:17:38;30.52;;;17.88;;
13891;SDS011;7016;48.172;8.058;2023-03-01T04:20:06;30.17;;;17.67;;
13891;SDS011;7016;48.172;8.058;2023-03-01T04:22:36;36.25;;;20.48;;
13891;SDS011;7016;48.172;8.058;2023-03-01T04:25:02;29.48;;;17.77;;
13891;SDS011;7016;48.172;8.058;2023-03-01T04:27:30;31.77;;;18.58;;
13891;SDS011;7016;48.172;8.058;2023-03-01T04:29:55;32.78;;;18.38;;
13891;SDS011;7016;48.172;8.058;2023-03-01T04:32:21;33.40;;;18.88;;
13891;SDS011;7016;48.172;8.058;2023-03-01T04:34:47;30.98;;;18.55;;
13891;SDS011;7016;48.172;8.058;2023-03-01T04:37:12;37.17;;;20.05;;
13891;SDS011;7016;48.172;8.058;2023-03-01T04:39:41;34.53;;;19.08;;
13891;SDS011;7016;48.172;8.058;2023-03-01T04:42:11;35.63;;;19.85;;
13891;SDS011;7016;48.172;8.058;2023-03-01T04:44:37;34.22;;;19.70;;
13891;SDS011;7016;48.172;8.058;2023-03-01T04:47:02;37.22;;;20.75;;
13891;SDS011;7016;48.172;8.058;2023-03-01T04:49:28;41.90;;;22.25;;
13891;SDS011;7016;48.172;8.058;2023-03-01T04:51:54;37.47;;;20.50;;
13891;SDS011;7016;48.172;8.058;2023-03-01T04:54:20;44.55;;;24.90;;
13891;SDS011;7016;48.172;8.058;2023-03-01T04:56:46;38.72;;;21.33;;
13891;SDS011;7016;48.172;8.058;2023-03-01T04:59:11;35.22;;;21.08;;
13891;SDS011;7016;48.172;8.058;2023-03-01T05:01:37;35.15;;;20.98;;
13891;SDS011;7016;48.172;8.058;2023-03-01T05:04:03;33.90;;;20.25;;
13891;SDS011;7016;48.172;8.058;2023-03-01T05:06:30;35.70;;;20.27;;
13891;SDS011;7016;48.172;8.058;2023-03-01T05:08:56;36.63;;;22.27;;
13891;SDS011;7016;48.172;8.058;2023-03-01T05:11:22;36.30;;;21.10;;
13891;SDS011;7016;48.172;8.058;2023-03-01T05:13:48;39.22;;;21.63;;
13891;SDS011;7016;48.172;8.058;2023-03-01T05:16:19;35.05;;;21.33;;
13891;SDS011;7016;48.172;8.058;2023-03-01T05:18:45;36.83;;;21.13;;
13891;SDS011;7016;48.172;8.058;2023-03-01T05:21:12;39.53;;;21.38;;
13891;SDS011;7016;48.172;8.058;2023-03-01T05:23:40;35.63;;;19.92;;
13891;SDS011;7016;48.172;8.058;2023-03-01T05:26:07;37.03;;;21.63;;
13891;SDS011;7016;48.172;8.058;2023-03-01T05:28:33;35.97;;;20.80;;
13891;SDS011;7016;48.172;8.058;2023-03-01T05:30:59;39.42;;;21.45;;
13891;SDS011;7016;48.172;8.058;2023-03-01T05:33:26;38.28;;;22.20;;
13891;SDS011;7016;48.172;8.058;2023-03-01T05:35:52;36.05;;;21.63;;
13891;SDS011;7016;48.172;8.058;2023-03-01T05:38:19;37.35;;;21.35;;
13891;SDS011;7016;48.172;8.058;2023-03-01T05:40:46;38.20;;;21.55;;
13891;SDS011;7016;48.172;8.058;2023-03-01T05:43:14;34.20;;;19.77;;
13891;SDS011;7016;48.172;8.058;2023-03-01T05:45:41;35.65;;;20.30;;
13891;SDS011;7016;48.172;8.058;2023-03-01T05:48:07;34.50;;;20.75;;
13891;SDS011;7016;48.172;8.058;2023-03-01T05:50:35;35.40;;;20.80;;
13891;SDS011;7016;48.172;8.058;2023-03-01T05:55:38;36.67;;;19.50;;
13891;SDS011;7016;48.172;8.058;2023-03-01T05:58:06;39.30;;;21.25;;
13891;SDS011;7016;48.172;8.058;2023-03-01T06:00:34;36.25;;;20.90;;
13891;SDS011;7016;48.172;8.058;2023-03-01T06:03:00;35.65;;;21.27;;
13891;SDS011;7016;48.172;8.058;2023-03-01T06:05:26;39.35;;;21.13;;
13891;SDS011;7016;48.172;8.058;2023-03-01T06:07:53;37.45;;;20.75;;
13891;SDS011;7016;48.172;8.058;2023-03-01T06:10:19;35.33;;;19.92;;
13891;SDS011;7016;48.172;8.058;2023-03-01T06:12:47;36.90;;;19.80;;
13891;SDS011;7016;48.172;8.058;2023-03-01T06:15:13;38.25;;;19.38;;
13891;SDS011;7016;48.172;8.058;2023-03-01T06:17:41;33.03;;;20.45;;
13891;SDS011;7016;48.172;8.058;2023-03-01T06:22:40;36.15;;;20.08;;
13891;SDS011;7016;48.172;8.058;2023-03-01T06:25:07;32.90;;;19.98;;
13891;SDS011;7016;48.172;8.058;2023-03-01T06:27:34;32.42;;;17.70;;
13891;SDS011;7016;48.172;8.058;2023-03-01T06:30:00;33.20;;;19.17;;
13891;SDS011;7016;48.172;8.058;2023-03-01T06:32:26;31.13;;;19.90;;
13891;SDS011;7016;48.172;8.058;2023-03-01T06:34:52;33.90;;;19.08;;
13891;SDS011;7016;48.172;8.058;2023-03-01T06:37:17;30.55;;;19.13;;
13891;SDS011;7016;48.172;8.058;2023-03-01T06:39:43;31.27;;;18.75;;
13891;SDS011;7016;48.172;8.058;2023-03-01T06:42:09;35.53;;;19.27;;
13891;SDS011;7016;48.172;8.058;2023-03-01T06:44:35;38.53;;;21.45;;
13891;SDS011;7016;48.172;8.058;2023-03-01T06:47:01;36.97;;;20.02;;
13891;SDS011;7016;48.172;8.058;2023-03-01T06:49:28;30.58;;;17.00;;
13891;SDS011;7016;48.172;8.058;2023-03-01T06:51:55;32.45;;;19.52;;
13891;SDS011;7016;48.172;8.058;2023-03-01T06:54:21;32.03;;;19.73;;
13891;SDS011;7016;48.172;8.058;2023-03-01T06:56:47;33.60;;;19.17;;
13891;SDS011;7016;48.172;8.058;2023-03-01T06:59:15;35.40;;;19.95;;
13891;SDS011;7016;48.172;8.058;2023-03-01T07:01:41;37.22;;;20.08;;
13891;SDS011;7016;48.172;8.058;2023-03-01T07:04:07;30.48;;;18.38;;
13891;SDS011;7016;48.172;8.058;2023-03-01T07:06:33;34.30;;;20.15;;
13891;SDS011;7016;48.172;8.058;2023-03-01T07:08:58;30.88;;;18.50;;
13891;SDS011;7016;48.172;8.058;2023-03-01T07:11:24;39.13;;;22.55;;
13891;SDS011;7016;48.172;8.058;2023-03-01T07:13:50;38.08;;;21.13;;
13891;SDS011;7016;48.172;8.058;2023-03-01T07:16:15;33.55;;;20.00;;
13891;SDS011;7016;48.172;8.058;2023-03-01T07:18:41;33.67;;;19.30;;
13891;SDS011;7016;48.172;8.058;2023-03-01T07:21:08;35.53;;;20.23;;
13891;SDS011;7016;48.172;8.058;2023-03-01T07:23:36;30.17;;;17.98;;
13891;SDS011;7016;48.172;8.058;2023-03-01T07:26:02;33.35;;;18.75;;
13891;SDS011;7016;48.172;8.058;2023-03-01T07:28:28;41.15;;;22.70;;
13891;SDS011;7016;48.172;8.058;2023-03-01T07:30:55;35.05;;;20.83;;
13891;SDS011;7016;48.172;8.058;2023-03-01T07:33:26;33.60;;;18.70;;
13891;SDS011;7016;48.172;8.058;2023-03-01T07:35:58;36.42;;;20.80;;
13891;SDS011;7016;48.172;8.058;2023-03-01T07:38:30;36.42;;;19.55;;
13891;SDS011;7016;48.172;8.058;2023-03-01T07:41:15;34.60;;;20.00;;
13891;SDS011;7016;48.172;8.058;2023-03-01T07:43:41;32.60;;;19.08;;
13891;SDS011;7016;48.172;8.058;2023-03-01T07:46:07;32.70;;;19.60;;
13891;SDS011;7016;48.172;8.058;2023-03-01T07:48:32;31.83;;;18.85;;
13891;SDS011;7016;48.172;8.058;2023-03-01T07:51:02;34.47;;;19.25;;
13891;SDS011;7016;48.172;8.058;2023-03-01T07:53:41;32.40;;;19.77;;
13891;SDS011;7016;48.172;8.058;2023-03-01T07:56:10;32.60;;;19.13;;
13891;SDS011;7016;48.172;8.058;2023-03-01T07:58:46;31.95;;;18.42;;
13891;SDS011;7016;48.172;8.058;2023-03-01T08:01:14;33.70;;;19.20;;
13891;SDS011;7016;48.172;8.058;2023-03-01T08:03:41;36.00;;;20.38;;
13891;SDS011;7016;48.172;8.058;2023-03-01T08:06:09;35.95;;;18.75;;
13891;SDS011;7016;48.172;8.058;2023-03-01T08:08:45;32.67;;;18.27;;
13891;SDS011;7016;48.172;8.058;2023-03-01T08:11:30;33.53;;;19.63;;
13891;SDS011;7016;48.172;8.058;2023-03-01T08:13:55;32.30;;;18.60;;
13891;SDS011;7016;48.172;8.058;2023-03-01T08:16:29;31.52;;;19.02;;
13891;SDS011;7016;48.172;8.058;2023-03-01T08:18:55;33.45;;;17.85;;
13891;SDS011;7016;48.172;8.058;2023-03-01T08:21:24;34.83;;;19.45;;
13891;SDS011;7016;48.172;8.058;2023-03-01T08:23:50;30.73;;;18.10;;
13891;SDS011;7016;48.172;8.058;2023-03-01T08:26:19;31.02;;;17.40;;
13891;SDS011;7016;48.172;8.058;2023-03-01T08:29:05;37.42;;;19.00;;
13891;SDS011;7016;48.172;8.058;2023-03-01T08:31:32;33.65;;;19.75;;
13891;SDS011;7016;48.172;8.058;2023-03-01T08:34:04;34.30;;;20.05;;
13891;SDS011;7016;48.172;8.058;2023-03-01T08:36:33;33.17;;;19.02;;
13891;SDS011;7016;48.172;8.058;2023-03-01T08:39:02;31.40;;;18.42;;
13891;SDS011;7016;48.172;8.058;2023-03-01T08:41:29;32.83;;;18.98;;
13891;SDS011;7016;48.172;8.058;2023-03-01T08:43:55;31.13;;;16.77;;
13891;SDS011;7016;48.172;8.058;2023-03-01T08:46:31;29.17;;;17.85;;
13891;SDS011;7016;48.172;8.058;2023-03-01T08:49:18;28.60;;;17.92;;
13891;SDS011;7016;48.172;8.058;2023-03-01T08:51:45;30.02;;;17.92;;
13891;SDS011;7016;48.172;8.058;2023-03-01T08:54:13;31.77;;;18.45;;
13891;SDS011;7016;48.172;8.058;2023-03-01T08:56:44;31.95;;;18.33;;
13891;SDS011;7016;48.172;8.058;2023-03-01T08:59:13;32.50;;;18.50;;
13891;SDS011;7016;48.172;8.058;2023-03-01T09:01:40;35.58;;;19.83;;
13891;SDS011;7016;48.172;8.058;2023-03-01T09:04:08;29.83;;;17.98;;
13891;SDS011;7016;48.172;8.058;2023-03-01T09:06:46;30.58;;;17.92;;
13891;SDS011;7016;48.172;8.058;2023-03-01T09:09:14;32.13;;;19.50;;
13891;SDS011;7016;48.172;8.058;2023-03-01T09:11:41;29.42;;;17.73;;
13891;SDS011;7016;48.172;8.058;2023-03-01T09:14:08;30.10;;;17.67;;
13891;SDS011;7016;48.172;8.058;2023-03-01T09:16:34;30.60;;;18.15;;
13891;SDS011;7016;48.172;8.058;2023-03-01T09:19:01;29.13;;;16.88;;
13891;SDS011;7016;48.172;8.058;2023-03-01T09:21:27;30.08;;;17.75;;
13891;SDS011;7016;48.172;8.058;2023-03-01T09:23:55;34.97;;;18.25;;
13891;SDS011;7016;48.172;8.058;2023-03-01T09:26:22;31.42;;;18.63;;
13891;SDS011;7016;48.172;8.058;2023-03-01T09:28:49;28.30;;;17.42;;
13891;SDS011;7016;48.172;8.058;2023-03-01T09:31:17;28.30;;;17.13;;
13891;SDS011;7016;48.172;8.058;2023-03-01T09:33:48;36.63;;;20.13;;
13891;SDS011;7016;48.172;8.058;2023-03-01T09:36:17;33.25;;;18.65;;
13891;SDS011;7016;48.172;8.058;2023-03-01T09:39:03;32.03;;;17.88;;
13891;SDS011;7016;48.172;8.058;2023-03-01T09:47:05;30.60;;;17.58;;
13891;SDS011;7016;48.172;8.058;2023-03-01T09:49:42;29.85;;;18.80;;
13891;SDS011;7016;48.172;8.058;2023-03-01T09:55:04;34.55;;;18.52;;
13891;SDS011;7016;48.172;8.058;2023-03-01T09:57:41;33.03;;;18.67;;
13891;SDS011;7016;48.172;8.058;2023-03-01T10:03:01;33.58;;;18.35;;
13891;SDS011;7016;48.172;8.058;2023-03-01T10:05:39;30.98;;;18.30;;
13891;SDS011;7016;48.172;8.058;2023-03-01T10:10:50;32.70;;;19.35;;
13891;SDS011;7016;48.172;8.058;2023-03-01T10:13:25;38.75;;;19.35;;
13891;SDS011;7016;48.172;8.058;2023-03-01T10:16:05;33.53;;;19.52;;
13891;SDS011;7016;48.172;8.058;2023-03-01T10:18:39;33.05;;;18.92;;
13891;SDS011;7016;48.172;8.058;2023-03-01T10:21:12;26.38;;;15.80;;
13891;SDS011;7016;48.172;8.058;2023-03-01T10:23:41;31.58;;;18.30;;
13891;SDS011;7016;48.172;8.058;2023-03-01T10:31:38;29.42;;;18.50;;
13891;SDS011;7016;48.172;8.058;2023-03-01T10:34:11;29.23;;;17.92;;
13891;SDS011;7016;48.172;8.058;2023-03-01T10:37:01;31.20;;;17.77;;
13891;SDS011;7016;48.172;8.058;2023-03-01T10:39:41;33.55;;;17.25;;
13891;SDS011;7016;48.172;8.058;2023-03-01T10:42:33;31.25;;;18.17;;
13891;SDS011;7016;48.172;8.058;2023-03-01T10:45:23;32.92;;;18.58;;
13891;SDS011;7016;48.172;8.058;2023-03-01T10:50:40;32.28;;;18.48;;
13891;SDS011;7016;48.172;8.058;2023-03-01T10:53:18;33.15;;;18.08;;
13891;SDS011;7016;48.172;8.058;2023-03-01T10:55:56;32.13;;;19.25;;
13891;SDS011;7016;48.172;8.058;2023-03-01T10:58:36;31.17;;;18.58;;
13891;SDS011;7016;48.172;8.058;2023-03-01T11:01:04;29.50;;;18.48;;
13891;SDS011;7016;48.172;8.058;2023-03-01T11:03:39;27.15;;;16.90;;
13891;SDS011;7016;48.172;8.058;2023-03-01T11:06:12;32.60;;;19.10;;
13891;SDS011;7016;48.172;8.058;2023-03-01T11:08:47;31.65;;;17.98;;
13891;SDS011;7016;48.172;8.058;2023-03-01T11:11:17;34.72;;;19.58;;
13891;SDS011;7016;48.172;8.058;2023-03-01T11:16:41;28.95;;;17.63;;
13891;SDS011;7016;48.172;8.058;2023-03-01T11:21:35;36.88;;;19.80;;
13891;SDS011;7016;48.172;8.058;2023-03-01T11:24:13;30.05;;;18.52;;
13891;SDS011;7016;48.172;8.058;2023-03-01T11:26:51;30.30;;;18.45;;
13891;SDS011;7016;48.172;8.058;2023-03-01T11:29:30;32.58;;;19.42;;
13891;SDS011;7016;48.172;8.058;2023-03-01T11:32:08;34.47;;;19.30;;
13891;SDS011;7016;48.172;8.058;2023-03-01T11:34:38;34.95;;;19.38;;
13891;SDS011;7016;48.172;8.058;2023-03-01T11:37:32;34.13;;;20.05;;
13891;SDS011;7016;48.172;8.058;2023-03-01T11:40:02;31.98;;;19.95;;
13891;SDS011;7016;48.172;8.058;2023-03-01T11:45:10;30.85;;;19.00;;
13891;SDS011;7016;48.172;8.058;2023-03-01T11:47:58;32.75;;;19.77;;
13891;SDS011;7016;48.172;8.058;2023-03-01T11:50:48;30.55;;;18.50;;
13891;SDS011;7016;48.172;8.058;2023-03-01T11:53:28;35.42;;;19.95;;
13891;SDS011;7016;48.172;8.058;2023-03-01T11:56:13;32.47;;;19.63;;
13891;SDS011;7016;48.172;8.058;2023-03-01T12:01:36;35.50;;;21.25;;
13891;SDS011;7016;48.172;8.058;2023-03-01T12:06:56;35.50;;;20.58;;
13891;SDS011;7016;48.172;8.058;2023-03-01T12:19:56;30.50;;;18.63;;
13891;SDS011;7016;48.172;8.058;2023-03-01T12:47:26;35.33;;;20.65;;
13891;SDS011;7016;48.172;8.058;2023-03-01T12:49:57;31.60;;;19.15;;
13891;SDS011;7016;48.172;8.058;2023-03-01T12:54:58;37.10;;;19.65;;
13891;SDS011;7016;48.172;8.058;2023-03-01T12:57:32;35.10;;;18.75;;
13891;SDS011;7016;48.172;8.058;2023-03-01T13:05:54;30.20;;;18.30;;
13891;SDS011;7016;48.172;8.058;2023-03-01T13:11:21;36.92;;;19.70;;
13891;SDS011;7016;48.172;8.058;2023-03-01T13:13:48;30.02;;;19.05;;
13891;SDS011;7016;48.172;8.058;2023-03-01T13:19:09;32.40;;;18.77;;
13891;SDS011;7016;48.172;8.058;2023-03-01T13:21:40;35.33;;;19.75;;
13891;SDS011;7016;48.172;8.058;2023-03-01T13:24:23;33.20;;;19.30;;
13891;SDS011;7016;48.172;8.058;2023-03-01T13:29:55;32.80;;;19.33;;
13891;SDS011;7016;48.172;8.058;2023-03-01T13:32:29;33.10;;;19.40;;
13891;SDS011;7016;48.172;8.058;2023-03-01T13:35:00;30.25;;;19.40;;
13891;SDS011;7016;48.172;8.058;2023-03-01T13:37:33;33.95;;;20.08;;
13891;SDS011;7016;48.172;8.058;2023-03-01T13:40:03;31.33;;;19.35;;
13891;SDS011;7016;48.172;8.058;2023-03-01T13:42:53;34.03;;;19.38;;
13891;SDS011;7016;48.172;8.058;2023-03-01T13:50:58;31.90;;;18.58;;
13891;SDS011;7016;48.172;8.058;2023-03-01T13:53:26;30.15;;;18.73;;
13891;SDS011;7016;48.172;8.058;2023-03-01T13:55:56;31.02;;;19.40;;
13891;SDS011;7016;48.172;8.058;2023-03-01T14:00:58;31.90;;;19.42;;
13891;SDS011;7016;48.172;8.058;2023-03-01T14:03:32;31.48;;;19.52;;
13891;SDS011;7016;48.172;8.058;2023-03-01T14:06:13;32.72;;;19.35;;
13891;SDS011;7016;48.172;8.058;2023-03-01T14:08:43;30.60;;;18.67;;
13891;SDS011;7016;48.172;8.058;2023-03-01T14:19:26;30.73;;;18.75;;
13891;SDS011;7016;48.172;8.058;2023-03-01T14:22:01;32.40;;;16.92;;
13891;SDS011;7016;48.172;8.058;2023-03-01T14:24:29;28.10;;;17.92;;
13891;SDS011;7016;48.172;8.058;2023-03-01T14:26:58;30.90;;;19.20;;
13891;SDS011;7016;48.172;8.058;2023-03-01T14:29:37;39.08;;;19.58;;
13891;SDS011;7016;48.172;8.058;2023-03-01T14:32:08;34.58;;;19.23;;
13891;SDS011;7016;48.172;8.058;2023-03-01T14:34:34;28.42;;;18.38;;
13891;SDS011;7016;48.172;8.058;2023-03-01T14:39:57;29.02;;;18.80;;
13891;SDS011;7016;48.172;8.058;2023-03-01T14:42:26;29.73;;;18.17;;
13891;SDS011;7016;48.172;8.058;2023-03-01T14:44:56;34.78;;;19.00;;
13891;SDS011;7016;48.172;8.058;2023-03-01T14:47:33;34.67;;;19.60;;
13891;SDS011;7016;48.172;8.058;2023-03-01T14:50:15;31.80;;;20.52;;
13891;SDS011;7016;48.172;8.058;2023-03-01T14:52:50;34.13;;;18.90;;
13891;SDS011;7016;48.172;8.058;2023-03-01T14:55:21;28.58;;;18.42;;
13891;SDS011;7016;48.172;8.058;2023-03-01T14:57:54;33.78;;;19.30;;
13891;SDS011;7016;48.172;8.058;2023-03-01T15:00:22;28.58;;;18.60;;
13891;SDS011;7016;48.172;8.058;2023-03-01T15:02:53;28.50;;;18.17;;
13891;SDS011;7016;48.172;8.058;2023-03-01T15:05:30;30.45;;;18.48;;
13891;SDS011;7016;48.172;8.058;2023-03-01T15:07:58;29.95;;;18.58;;
13891;SDS011;7016;48.172;8.058;2023-03-01T15:10:27;30.08;;;19.05;;
13891;SDS011;7016;48.172;8.058;2023-03-01T15:12:55;31.58;;;18.30;;
13891;SDS011;7016;48.172;8.058;2023-03-01T15:15:26;32.67;;;19.50;;
13891;SDS011;7016;48.172;8.058;2023-03-01T15:17:59;29.42;;;18.75;;
13891;SDS011;7016;48.172;8.058;2023-03-01T15:20:27;27.90;;;18.30;;
13891;SDS011;7016;48.172;8.058;2023-03-01T15:22:55;33.15;;;19.50;;
13891;SDS011;7016;48.172;8.058;2023-03-01T15:25:26;27.30;;;18.15;;
13891;SDS011;7016;48.172;8.058;2023-03-01T15:27:54;31.88;;;18.75;;
13891;SDS011;7016;48.172;8.058;2023-03-01T15:30:22;30.92;;;18.10;;
13891;SDS011;7016;48.172;8.058;2023-03-01T15:33:16;27.15;;;17.40;;
13891;SDS011;7016;48.172;8.058;2023-03-01T15:35:45;29.02;;;18.83;;
13891;SDS011;7016;48.172;8.058;2023-03-01T15:38:26;28.40;;;18.08;;
13891;SDS011;7016;48.172;8.058;2023-03-01T15:40:54;28.80;;;18.33;;
13891;SDS011;7016;48.172;8.058;2023-03-01T15:46:16;33.33;;;20.00;;
13891;SDS011;7016;48.172;8.058;2023-03-01T15:48:44;31.73;;;19.10;;
13891;SDS011;7016;48.172;8.058;2023-03-01T15:51:12;33.45;;;19.10;;
13891;SDS011;7016;48.172;8.058;2023-03-01T15:53:40;30.35;;;19.45;;
13891;SDS011;7016;48.172;8.058;2023-03-01T15:56:06;29.95;;;18.42;;
13891;SDS011;7016;48.172;8.058;2023-03-01T15:58:32;34.20;;;18.58;;
13891;SDS011;7016;48.172;8.058;2023-03-01T16:00:58;31.10;;;19.08;;
13891;SDS011;7016;48.172;8.058;2023-03-01T16:03:24;28.45;;;18.27;;
13891;SDS011;7016;48.172;8.058;2023-03-01T16:05:50;29.67;;;18.48;;
13891;SDS011;7016;48.172;8.058;2023-03-01T16:08:17;31.80;;;18.83;;
13891;SDS011;7016;48.172;8.058;2023-03-01T16:10:43;33.58;;;18.83;;
13891;SDS011;7016;48.172;8.058;2023-03-01T16:13:13;30.60;;;17.55;;
13891;SDS011;7016;48.172;8.058;2023-03-01T16:15:39;29.17;;;18.00;;
13891;SDS011;7016;48.172;8.058;2023-03-01T16:18:06;28.65;;;18.90;;
13891;SDS011;7016;48.172;8.058;2023-03-01T16:20:33;30.30;;;18.08;;
13891;SDS011;7016;48.172;8.058;2023-03-01T16:22:59;31.27;;;19.38;;
13891;SDS011;7016;48.172;8.058;2023-03-01T16:25:26;33.53;;;20.23;;
13891;SDS011;7016;48.172;8.058;2023-03-01T16:27:52;32.35;;;18.40;;
13891;SDS011;7016;48.172;8.058;2023-03-01T16:30:20;29.52;;;16.98;;
13891;SDS011;7016;48.172;8.058;2023-03-01T16:32:47;28.17;;;17.80;;
13891;SDS011;7016;48.172;8.058;2023-03-01T16:35:14;33.47;;;19.00;;
13891;SDS011;7016;48.172;8.058;2023-03-01T16:37:42;31.42;;;18.63;;
13891;SDS011;7016;48.172;8.058;2023-03-01T16:40:19;38.42;;;18.95;;
13891;SDS011;7016;48.172;8.058;2023-03-01T16:42:50;28.90;;;17.45;;
13891;SDS011;7016;48.172;8.058;2023-03-01T16:45:17;26.33;;;15.98;;
13891;SDS011;7016;48.172;8.058;2023-03-01T16:47:43;33.17;;;19.20;;
13891;SDS011;7016;48.172;8.058;2023-03-01T16:50:09;28.52;;;17.77;;
13891;SDS011;7016;48.172;8.058;2023-03-01T16:52:36;28.70;;;18.17;;
13891;SDS011;7016;48.172;8.058;2023-03-01T16:55:02;31.40;;;17.58;;